Viking Princess — 9V2630 — position and weather

sailwx.info

Track history (hours):
 
Tides and Currents Weather Stations Pressure Air Temp Water Temp Dewpoint Dewpoint Depression Visibility Wind Speed Wind Dir Waves Ship Positions

Viking Princess

Last reported at 2018-May-30 01:23 UTC. Time now 2018-Jun-18 05:30 UTC.
Position N 14°42' W 061°13'.
Warning: this ship's position is 19 days out of date.

Length 117 m; draft 5 m.

Type: Cargo ship. MMSI: 564945000.

Date/timePositionNaut miles runAvg speedWind from/ knotsBaromVisibWave heightAir tempDewpointWater temp
2018-May-30 01:23N 14°42' W 061°13'3 8.6
2018-May-30 01:00N 14°39' W 061°11'7 8.6
2018-May-30 00:10N 14°34' W 061°06'0 0.6
2018-May-29 23:57N 14°34' W 061°06'0 0.1
2018-May-29 23:30N 14°34' W 061°06'0 0.1
2018-May-29 22:51N 14°34' W 061°06'0 0.0
2018-May-29 22:18N 14°34' W 061°06'0 0.0
2018-May-29 22:00N 14°34' W 061°06'0 0.0
2018-May-29 21:30N 14°34' W 061°06'0 0.0
2018-May-29 20:57N 14°34' W 061°06'0 0.0
2018-May-29 20:30N 14°34' W 061°06'0 0.0
2018-May-29 20:00N 14°34' W 061°06'0 0.0
2018-May-29 19:30N 14°34' W 061°06'0 0.1
2018-May-29 19:00N 14°34' W 061°06'2 3.6
2018-May-29 18:30N 14°35' W 061°04'1 2.6
2018-May-29 18:01N 14°36' W 061°04'0 0.0
2018-May-29 17:25N 14°36' W 061°04'0 0.0
2018-May-29 14:06N 14°36' W 061°04'0 0.0
2018-May-29 13:48N 14°36' W 061°04'0 0.0
2018-May-29 13:30N 14°36' W 061°04'0 0.0
2018-May-29 12:48N 14°36' W 061°04'0 0.0
2018-May-29 10:48N 14°36' W 061°04'0 0.0
2018-May-29 10:30N 14°36' W 061°04'0 0.0
2018-May-29 09:55N 14°36' W 061°04'0 0.0
2018-May-29 09:30N 14°36' W 061°04'2 3.5
2018-May-29 09:00N 14°35' W 061°05'3 6.3
2018-May-29 08:29N 14°32' W 061°07'4 8.3
2018-May-29 08:00N 14°29' W 061°07'4 8.2
2018-May-29 07:30N 14°24' W 061°07'4 7.8
2018-May-29 07:00N 14°21' W 061°06'4 8.2
2018-May-29 06:30N 14°17' W 061°05'4 8.2
2018-May-29 06:00N 14°13' W 061°04'4 8.0
2018-May-29 05:30N 14°09' W 061°03'7 0.3
2018-May-28 02:53N 14°02' W 061°01'22 8.4
2018-May-28 00:12N 13°40' W 060°56'31 1.2
2018-May-26 23:23N 14°11' W 060°53'4 7.5
2018-May-26 22:54N 14°13' W 060°56'3 7.8
2018-May-26 22:30N 14°15' W 060°59'4 7.7
2018-May-26 22:00N 14°17' W 061°02'3 7.0
2018-May-26 21:30N 14°20' W 061°04'4 6.9
2018-May-26 21:00N 14°22' W 061°06'3 6.8
2018-May-26 20:30N 14°25' W 061°08'4 7.1
2018-May-26 20:00N 14°29' W 061°09'4 7.5
2018-May-26 19:30N 14°32' W 061°11'4 8.5
2018-May-26 18:59N 14°36' W 061°13'4 8.3
2018-May-26 18:30N 14°40' W 061°14'4 8.5
2018-May-26 18:00N 14°44' W 061°16'163 4.6
2018-May-25 06:18N 17°06' W 062°39'3 9.0
2018-May-25 05:56N 17°09' W 062°41'  
Track history (hours):
 
Tides and Currents Weather Stations Pressure Air Temp Water Temp Dewpoint Dewpoint Depression Visibility Wind Speed Wind Dir Waves Ship Positions

Viking Princess

Last reported at 2018-May-30 01:23 UTC. Time now 2018-Jun-18 05:30 UTC.
Position N 14°42' W 061°13'.
Warning: this ship's position is 19 days out of date.

Length 117 m; draft 5 m.

Type: Cargo ship. MMSI: 564945000.

Date/timePositionNaut miles runAvg speedWind from/ knotsBaromVisibWave heightAir tempDewpointWater temp
2018-May-30 01:23N 14°42' W 061°13'3 8.6
2018-May-30 01:00N 14°39' W 061°11'7 8.6
2018-May-30 00:10N 14°34' W 061°06'0 0.6
2018-May-29 23:57N 14°34' W 061°06'0 0.1
2018-May-29 23:30N 14°34' W 061°06'0 0.1
2018-May-29 22:51N 14°34' W 061°06'0 0.0
2018-May-29 22:18N 14°34' W 061°06'0 0.0
2018-May-29 22:00N 14°34' W 061°06'0 0.0
2018-May-29 21:30N 14°34' W 061°06'0 0.0
2018-May-29 20:57N 14°34' W 061°06'0 0.0
2018-May-29 20:30N 14°34' W 061°06'0 0.0
2018-May-29 20:00N 14°34' W 061°06'0 0.0
2018-May-29 19:30N 14°34' W 061°06'0 0.1
2018-May-29 19:00N 14°34' W 061°06'2 3.6
2018-May-29 18:30N 14°35' W 061°04'1 2.6
2018-May-29 18:01N 14°36' W 061°04'0 0.0
2018-May-29 17:25N 14°36' W 061°04'0 0.0
2018-May-29 14:06N 14°36' W 061°04'0 0.0
2018-May-29 13:48N 14°36' W 061°04'0 0.0
2018-May-29 13:30N 14°36' W 061°04'0 0.0
2018-May-29 12:48N 14°36' W 061°04'0 0.0
2018-May-29 10:48N 14°36' W 061°04'0 0.0
2018-May-29 10:30N 14°36' W 061°04'0 0.0
2018-May-29 09:55N 14°36' W 061°04'0 0.0
2018-May-29 09:30N 14°36' W 061°04'2 3.5
2018-May-29 09:00N 14°35' W 061°05'3 6.3
2018-May-29 08:29N 14°32' W 061°07'4 8.3
2018-May-29 08:00N 14°29' W 061°07'4 8.2
2018-May-29 07:30N 14°24' W 061°07'4 7.8
2018-May-29 07:00N 14°21' W 061°06'4 8.2
2018-May-29 06:30N 14°17' W 061°05'4 8.2
2018-May-29 06:00N 14°13' W 061°04'4 8.0
2018-May-29 05:30N 14°09' W 061°03'7 0.3
2018-May-28 02:53N 14°02' W 061°01'22 8.4
2018-May-28 00:12N 13°40' W 060°56'31 1.2
2018-May-26 23:23N 14°11' W 060°53'4 7.5
2018-May-26 22:54N 14°13' W 060°56'3 7.8
2018-May-26 22:30N 14°15' W 060°59'4 7.7
2018-May-26 22:00N 14°17' W 061°02'3 7.0
2018-May-26 21:30N 14°20' W 061°04'4 6.9
2018-May-26 21:00N 14°22' W 061°06'3 6.8
2018-May-26 20:30N 14°25' W 061°08'4 7.1
2018-May-26 20:00N 14°29' W 061°09'4 7.5
2018-May-26 19:30N 14°32' W 061°11'4 8.5
2018-May-26 18:59N 14°36' W 061°13'4 8.3
2018-May-26 18:30N 14°40' W 061°14'4 8.5
2018-May-26 18:00N 14°44' W 061°16'163 4.6
2018-May-25 06:18N 17°06' W 062°39'3 9.0
2018-May-25 05:56N 17°09' W 062°41'  

Dump ship's entire track history